createdAt,value
2023-04-20T00:02:36.952Z,89.92
2023-04-20T00:08:38.955Z,91.29
2023-04-20T00:14:40.926Z,92.63
2023-04-20T00:20:42.791Z,93.29
2023-04-20T00:26:44.717Z,93.61
2023-04-20T00:32:46.631Z,94.15
2023-04-20T00:38:48.626Z,94.73
2023-04-20T00:44:50.996Z,93.76
2023-04-20T00:50:53.084Z,93.31
2023-04-20T00:56:57.940Z,93.80
2023-04-20T01:03:00.222Z,93.91
2023-04-20T01:09:02.313Z,93.72
2023-04-20T01:15:06.038Z,93.38
2023-04-20T01:21:08.684Z,92.07
2023-04-20T01:27:10.555Z,92.19
2023-04-20T01:33:12.410Z,92.98
2023-04-20T01:39:14.394Z,94.01
2023-04-20T01:45:16.360Z,93.68
2023-04-20T01:51:18.227Z,93.51
2023-04-20T01:57:20.181Z,94.65
2023-04-20T02:03:22.244Z,94.08
2023-04-20T02:09:24.404Z,94.40
2023-04-20T02:15:26.317Z,94.10
2023-04-20T02:21:28.251Z,94.88
2023-04-20T02:27:30.718Z,95.04
2023-04-20T02:33:32.611Z,95.70
2023-04-20T02:39:34.483Z,95.72
2023-04-20T02:45:36.907Z,95.35
2023-04-20T02:51:38.788Z,95.35
2023-04-20T02:57:40.669Z,95.28
2023-04-20T03:03:42.646Z,94.80
2023-04-20T03:09:44.787Z,94.00
2023-04-20T03:15:46.758Z,93.23
2023-04-20T03:21:48.706Z,92.94
2023-04-20T03:27:50.565Z,92.64
2023-04-20T03:33:52.446Z,92.37
2023-04-20T03:39:54.327Z,93.19
2023-04-20T03:45:56.275Z,93.35
2023-04-20T03:51:58.164Z,92.71
2023-04-20T03:58:00.044Z,93.61
2023-04-20T04:04:02.144Z,93.35
2023-04-20T04:10:05.883Z,93.86
2023-04-20T04:16:07.868Z,93.20
2023-04-20T04:22:09.998Z,92.09
2023-04-20T04:28:12.550Z,92.72
2023-04-20T04:34:14.457Z,92.65
2023-04-20T04:40:16.463Z,92.18
2023-04-20T04:46:18.711Z,93.03
2023-04-20T04:52:21.693Z,92.59
2023-04-20T04:58:23.641Z,91.51
2023-04-20T05:04:25.610Z,89.75
2023-04-20T05:10:27.874Z,88.93
2023-04-20T05:16:29.870Z,88.88
2023-04-20T05:22:31.823Z,88.86
2023-04-20T05:28:34.788Z,88.58
2023-04-20T05:34:36.683Z,89.38
2023-04-20T05:40:38.684Z,89.17
2023-04-20T05:46:40.775Z,87.80
2023-04-20T05:52:42.636Z,88.24
2023-04-20T05:58:44.806Z,87.52
2023-04-20T06:04:46.840Z,87.09
2023-04-20T06:10:48.900Z,87.30
2023-04-20T06:16:50.876Z,86.93
2023-04-20T06:22:52.997Z,85.26
2023-04-20T06:28:54.889Z,84.62
2023-04-20T06:34:56.788Z,83.19
2023-04-20T06:41:01.989Z,77.66
2023-04-20T06:47:04.105Z,77.65
2023-04-20T06:53:06.336Z,76.83
2023-04-20T06:59:08.248Z,76.63
2023-04-20T07:05:11.405Z,76.06
2023-04-20T07:11:13.469Z,77.99
2023-04-20T07:17:19.416Z,77.86
2023-04-20T07:23:21.420Z,76.62
2023-04-20T07:29:23.340Z,75.21
2023-04-20T07:35:25.516Z,74.79
2023-04-20T07:41:27.482Z,75.07
2023-04-20T07:47:29.739Z,75.13
2023-04-20T07:53:31.772Z,75.78
2023-04-20T07:59:33.712Z,75.61
2023-04-20T08:05:38.659Z,73.88
2023-04-20T08:11:41.113Z,72.94
2023-04-20T08:17:43.128Z,72.96
2023-04-20T08:23:45.157Z,71.76
2023-04-20T08:29:47.053Z,70.30
2023-04-20T08:35:54.461Z,67.09
2023-04-20T08:41:57.379Z,68.98
2023-04-20T08:48:03.051Z,68.38
2023-04-20T08:54:06.580Z,66.77
2023-04-20T09:00:13.885Z,66.58
2023-04-20T09:06:18.509Z,64.47
2023-04-20T09:12:22.553Z,62.25
2023-04-20T09:18:24.855Z,63.52
2023-04-20T09:24:35.225Z,63.22
2023-04-20T09:30:48.988Z,63.04
2023-04-20T09:36:55.494Z,63.99
2023-04-20T09:43:04.058Z,64.26
2023-04-20T09:49:08.603Z,65.87
2023-04-20T09:55:11.134Z,62.69
2023-04-20T10:01:13.619Z,61.63
2023-04-20T10:07:27.700Z,56.83
2023-04-20T10:13:34.107Z,49.29
2023-04-20T10:19:45.996Z,51.01
2023-04-20T10:26:00.883Z,51.67
2023-04-20T10:32:03.354Z,53.38
2023-04-20T10:38:05.392Z,55.64
2023-04-20T10:44:08.956Z,55.30
2023-04-20T10:50:15.954Z,54.87
2023-04-20T10:56:17.871Z,54.23
2023-04-20T11:02:19.919Z,57.49
2023-04-20T11:08:21.922Z,56.68
2023-04-20T11:14:24.221Z,56.11
2023-04-20T11:20:26.121Z,50.69
2023-04-20T11:26:38.262Z,45.24
2023-04-20T11:32:40.395Z,41.14
2023-04-20T11:38:42.454Z,46.02
2023-04-20T11:44:44.334Z,49.06
2023-04-20T11:50:46.294Z,49.80
2023-04-20T11:56:48.657Z,44.82
2023-04-20T12:02:51.793Z,48.19
2023-04-20T12:08:53.724Z,48.49
2023-04-20T12:14:55.818Z,42.76
2023-04-20T12:20:57.682Z,39.14
2023-04-20T12:26:59.613Z,39.46
2023-04-20T12:33:03.516Z,33.56
2023-04-20T12:39:05.635Z,36.54
2023-04-20T12:45:08.394Z,38.41
2023-04-20T12:51:10.464Z,39.37
2023-04-20T12:57:12.385Z,40.29
2023-04-20T13:03:14.395Z,42.90
2023-04-20T13:09:16.454Z,43.93
2023-04-20T13:15:31.916Z,48.43
2023-04-20T13:21:39.836Z,49.33
2023-04-20T13:27:41.726Z,52.57
2023-04-20T13:33:43.645Z,54.86
2023-04-20T13:39:45.596Z,55.61
2023-04-20T13:45:47.600Z,56.63
2023-04-20T13:51:50.293Z,57.25
2023-04-20T13:57:52.420Z,57.90
2023-04-20T14:03:55.725Z,58.91
2023-04-20T14:09:59.835Z,58.75
2023-04-20T14:16:01.789Z,58.86
2023-04-20T14:22:03.726Z,59.49
2023-04-20T14:28:05.700Z,60.61
2023-04-20T14:34:09.321Z,61.88
2023-04-20T14:40:11.950Z,61.74
2023-04-20T14:46:14.017Z,63.06
2023-04-20T14:52:15.963Z,63.46
2023-04-20T14:58:19.432Z,65.82
2023-04-20T15:04:21.637Z,66.61
2023-04-20T15:10:23.914Z,66.67
2023-04-20T15:16:25.825Z,66.52
2023-04-20T15:22:27.750Z,66.94
2023-04-20T15:28:29.652Z,68.16
2023-04-20T15:34:31.580Z,70.23
2023-04-20T15:40:33.553Z,71.36
2023-04-20T15:46:37.940Z,71.56
2023-04-20T15:52:39.990Z,73.22
2023-04-20T15:58:41.927Z,72.77
2023-04-20T16:04:43.945Z,73.86
2023-04-20T16:10:45.946Z,74.11
2023-04-20T16:16:47.845Z,73.51
2023-04-20T16:22:49.727Z,73.88
2023-04-20T16:28:52.676Z,72.23
2023-04-20T16:34:54.573Z,71.37
2023-04-20T16:40:56.499Z,72.01
2023-04-20T16:46:58.502Z,71.76
2023-04-20T16:53:00.713Z,72.32
2023-04-20T16:59:03.058Z,73.27
2023-04-20T17:05:07.197Z,72.73
2023-04-20T17:11:09.114Z,75.33
2023-04-20T17:17:11.003Z,75.41
2023-04-20T17:23:12.903Z,76.51
2023-04-20T17:29:14.882Z,76.62
2023-04-20T17:35:16.888Z,77.42
2023-04-20T17:41:18.799Z,78.12
2023-04-20T17:47:20.748Z,78.57
2023-04-20T17:53:22.765Z,78.71
2023-04-20T17:59:24.699Z,78.80
2023-04-20T18:05:27.195Z,79.91
2023-04-20T18:11:29.163Z,79.93
2023-04-20T18:17:31.123Z,80.97
2023-04-20T18:23:33.283Z,81.05
2023-04-20T18:29:35.449Z,80.66
2023-04-20T18:35:37.375Z,80.88
2023-04-20T18:41:39.304Z,81.08
2023-04-20T18:47:41.266Z,81.04
2023-04-20T18:53:43.268Z,81.70
2023-04-20T18:59:45.312Z,81.04
2023-04-20T19:05:47.304Z,81.69
2023-04-20T19:11:50.804Z,81.85
2023-04-20T19:17:55.344Z,81.06
2023-04-20T19:23:57.285Z,81.67
2023-04-20T19:29:59.206Z,82.26
2023-04-20T19:36:03.311Z,82.02
2023-04-20T19:42:05.244Z,82.44
2023-04-20T19:48:07.342Z,82.38
2023-04-20T19:54:09.316Z,81.91
2023-04-20T20:00:12.000Z,82.30
2023-04-20T20:06:14.012Z,82.20
2023-04-20T20:12:16.464Z,82.88
2023-04-20T20:18:18.854Z,83.65
2023-04-20T20:24:23.068Z,84.22
2023-04-20T20:30:25.005Z,84.37
2023-04-20T20:36:27.872Z,84.88
2023-04-20T20:42:30.389Z,84.91
2023-04-20T20:48:32.324Z,85.39
2023-04-20T20:54:34.267Z,85.84
2023-04-20T21:00:36.268Z,85.53
2023-04-20T21:06:38.216Z,85.38
2023-04-20T21:12:40.420Z,86.25
2023-04-20T21:18:42.350Z,87.10
2023-04-20T21:24:44.244Z,88.02
2023-04-20T21:30:46.171Z,89.77
2023-04-20T21:36:48.600Z,92.65
2023-04-20T21:42:50.500Z,95.32
2023-04-20T21:48:52.452Z,95.85
2023-04-20T21:54:54.344Z,95.89
2023-04-20T22:00:56.296Z,96.02
2023-04-20T22:06:58.194Z,96.05
2023-04-20T22:13:00.131Z,95.72
2023-04-20T22:19:02.418Z,97.26
2023-04-20T22:25:05.799Z,98.25
2023-04-20T22:31:07.818Z,97.94
2023-04-20T22:37:10.438Z,97.50
2023-04-20T22:43:12.404Z,96.54
2023-04-20T22:49:15.021Z,97.52
2023-04-20T22:55:16.960Z,97.00
2023-04-20T23:01:18.883Z,96.56
2023-04-20T23:07:21.240Z,97.03
2023-04-20T23:13:26.077Z,96.31
2023-04-20T23:19:28.313Z,92.50
2023-04-20T23:25:30.208Z,91.13
2023-04-20T23:31:32.086Z,88.26
2023-04-20T23:37:33.969Z,87.06
2023-04-20T23:43:37.157Z,86.61
2023-04-20T23:49:39.069Z,87.03
2023-04-20T23:55:40.944Z,86.43
